Time;durP1;ratioP1;P1;durP2;ratioP2;P2;SDS_P1;SDS_P2;PMS_P1;PMS_P2;Temp;Humidity;BMP_temperature;BMP_pressure;BME280_temperature;BME280_humidity;BME280_pressure;Samples;Min_cycle;Max_cycle;Signal;HPM_P1;HPM_P2
2023/12/17 00:00:36;;;;;;;28.42;27.30;;;;;;;;;;5039680;28;20087;-73
2023/12/17 00:03:03;;;;;;;22.77;21.88;;;;;;;;;;5043514;28;20048;-74
2023/12/17 00:05:30;;;;;;;25.83;24.27;;;;;;;;;;5042173;28;20456;-74
2023/12/17 00:07:57;;;;;;;30.67;29.45;;;;;;;;;;5039266;28;20104;-75
2023/12/17 00:10:24;;;;;;;30.55;29.20;;;;;;;;;;5041058;28;20107;-75
2023/12/17 00:12:50;;;;;;;19.65;18.73;;;;;;;;;;5041848;28;20434;-75
2023/12/17 00:15:17;;;;;;;24.27;23.15;;;;;;;;;;5042225;28;20041;-74
2023/12/17 00:17:42;;;;;;;27.70;26.65;;;;;;;;;;5040814;28;20049;-74
2023/12/17 00:20:09;;;;;;;22.83;21.90;;;;;;;;;;5041926;28;20099;-74
2023/12/17 00:22:36;;;;;;;27.17;26.13;;;;;;;;;;5043888;28;20042;-74
2023/12/17 00:25:05;;;;;;;22.02;20.92;;;;;;;;;;5031126;28;20089;-74
2023/12/17 00:27:31;;;;;;;24.92;23.75;;;;;;;;;;5031413;28;20119;-74
2023/12/17 00:29:58;;;;;;;33.17;31.85;;;;;;;;;;5037641;28;20099;-74
2023/12/17 00:32:24;;;;;;;22.50;21.65;;;;;;;;;;5048274;28;20110;-74
2023/12/17 00:34:50;;;;;;;20.83;19.75;;;;;;;;;;5031287;28;20050;-75
2023/12/17 00:37:17;;;;;;;31.05;29.85;;;;;;;;;;5031409;28;20490;-74
2023/12/17 00:39:43;;;;;;;18.67;17.88;;;;;;;;;;5031802;28;20053;-74
2023/12/17 00:42:11;;;;;;;23.02;22.10;;;;;;;;;;5035501;28;20057;-74
2023/12/17 00:44:38;;;;;;;19.83;18.92;;;;;;;;;;5034339;28;20132;-74
2023/12/17 00:47:04;;;;;;;18.75;17.95;;;;;;;;;;5033641;28;20095;-74
2023/12/17 00:49:31;;;;;;;19.33;17.90;;;;;;;;;;5051286;28;20106;-73
2023/12/17 00:51:57;;;;;;;20.40;19.67;;;;;;;;;;5050941;28;20122;-74
2023/12/17 00:54:24;;;;;;;28.63;27.27;;;;;;;;;;5038906;28;20053;-75
2023/12/17 00:56:50;;;;;;;15.93;15.32;;;;;;;;;;5031472;28;20475;-74
2023/12/17 00:59:18;;;;;;;22.08;21.23;;;;;;;;;;5031518;28;20099;-73
2023/12/17 01:01:45;;;;;;;27.38;26.20;;;;;;;;;;5031530;28;20061;-76
2023/12/17 01:04:11;;;;;;;35.88;34.50;;;;;;;;;;5038640;28;20107;-75
2023/12/17 01:06:38;;;;;;;19.67;18.65;;;;;;;;;;5046482;28;20106;-75
2023/12/17 01:09:04;;;;;;;24.55;23.55;;;;;;;;;;5051177;28;20115;-75
2023/12/17 01:11:31;;;;;;;23.23;22.38;;;;;;;;;;5051306;28;20460;-76
2023/12/17 01:13:57;;;;;;;21.48;20.67;;;;;;;;;;5047889;28;20111;-76
2023/12/17 01:16:25;;;;;;;15.73;15.02;;;;;;;;;;5031194;28;20049;-76
2023/12/17 01:18:51;;;;;;;26.10;25.10;;;;;;;;;;5032507;28;20103;-75
2023/12/17 01:21:18;;;;;;;20.52;19.73;;;;;;;;;;5034725;28;20046;-74
2023/12/17 01:23:44;;;;;;;20.10;19.33;;;;;;;;;;5053575;28;20049;-74
2023/12/17 01:26:18;;;;;;;26.98;26.02;;;;;;;;;;5037246;28;20045;-75
2023/12/17 01:28:44;;;;;;;21.08;20.27;;;;;;;;;;5035202;28;20050;-75
2023/12/17 01:31:10;;;;;;;21.58;20.77;;;;;;;;;;5034932;28;20111;-75
2023/12/17 01:33:38;;;;;;;27.00;25.85;;;;;;;;;;5034995;28;20046;-74
2023/12/17 01:36:05;;;;;;;21.60;20.73;;;;;;;;;;5041210;28;20560;-75
2023/12/17 01:38:32;;;;;;;22.75;21.90;;;;;;;;;;5050944;28;20482;-75
2023/12/17 01:40:58;;;;;;;34.47;33.33;;;;;;;;;;5053009;28;20091;-75
2023/12/17 01:43:25;;;;;;;27.02;25.92;;;;;;;;;;5054148;28;20560;-75
2023/12/17 01:45:51;;;;;;;18.17;17.48;;;;;;;;;;5045236;28;20107;-75
2023/12/17 01:48:18;;;;;;;22.48;21.55;;;;;;;;;;5034110;28;20049;-76
2023/12/17 01:50:46;;;;;;;28.23;27.20;;;;;;;;;;5034436;28;20057;-76
2023/12/17 01:53:13;;;;;;;23.92;22.92;;;;;;;;;;5034375;28;20467;-75
2023/12/17 01:55:39;;;;;;;27.42;26.45;;;;;;;;;;5043651;28;20095;-75
2023/12/17 01:58:06;;;;;;;25.55;24.60;;;;;;;;;;5054096;28;20053;-76
2023/12/17 02:00:32;;;;;;;20.70;19.90;;;;;;;;;;5054097;28;20045;-76
2023/12/17 02:02:59;;;;;;;24.55;23.63;;;;;;;;;;5054198;28;20052;-76
2023/12/17 02:05:26;;;;;;;16.67;16.05;;;;;;;;;;5053253;28;20490;-75
2023/12/17 02:07:53;;;;;;;29.27;28.25;;;;;;;;;;5034885;28;20095;-76
2023/12/17 02:10:20;;;;;;;24.70;23.83;;;;;;;;;;5033984;28;20502;-76
2023/12/17 02:12:46;;;;;;;19.60;18.90;;;;;;;;;;5037538;28;20045;-76
2023/12/17 02:15:13;;;;;;;21.35;20.50;;;;;;;;;;5052992;28;20094;-76
2023/12/17 02:17:39;;;;;;;19.95;19.25;;;;;;;;;;5053774;28;20103;-77
2023/12/17 02:20:07;;;;;;;25.55;24.65;;;;;;;;;;5054301;28;20391;-77
2023/12/17 02:22:34;;;;;;;20.15;19.25;;;;;;;;;;5053752;28;20087;-77
2023/12/17 02:25:02;;;;;;;15.35;14.73;;;;;;;;;;5053778;28;20080;-77
2023/12/17 02:27:29;;;;;;;20.88;20.08;;;;;;;;;;5044305;28;20045;-78
2023/12/17 02:29:55;;;;;;;23.67;22.83;;;;;;;;;;5052785;28;20497;-78
2023/12/17 02:32:23;;;;;;;26.35;25.42;;;;;;;;;;5053216;28;20110;-78
2023/12/17 02:34:49;;;;;;;20.25;19.48;;;;;;;;;;5053661;28;20493;-77
2023/12/17 02:37:16;;;;;;;23.08;22.25;;;;;;;;;;5047852;28;20049;-77
2023/12/17 02:39:42;;;;;;;18.92;18.05;;;;;;;;;;5033465;28;20104;-77
2023/12/17 02:42:10;;;;;;;16.90;16.20;;;;;;;;;;5033496;28;20057;-77
2023/12/17 02:44:37;;;;;;;19.15;18.45;;;;;;;;;;5033621;28;20112;-77
2023/12/17 02:47:03;;;;;;;25.90;24.95;;;;;;;;;;5047572;28;20052;-77
2023/12/17 02:49:31;;;;;;;19.20;18.35;;;;;;;;;;5033021;28;20510;-76
2023/12/17 02:51:58;;;;;;;22.20;21.15;;;;;;;;;;5033294;28;20502;-76
2023/12/17 02:54:25;;;;;;;20.52;19.73;;;;;;;;;;5033213;28;20112;-76
2023/12/17 02:56:51;;;;;;;26.70;24.92;;;;;;;;;;5041297;28;20095;-76
2023/12/17 02:59:19;;;;;;;20.02;18.98;;;;;;;;;;5037865;28;20072;-77
2023/12/17 03:01:46;;;;;;;22.17;21.35;;;;;;;;;;5033208;28;20049;-77
2023/12/17 03:04:13;;;;;;;25.40;24.48;;;;;;;;;;5032957;28;20133;-77
2023/12/17 03:06:40;;;;;;;20.67;19.90;;;;;;;;;;5033280;28;20050;-77
2023/12/17 03:09:06;;;;;;;18.75;17.95;;;;;;;;;;5040205;28;20053;-77
2023/12/17 03:11:33;;;;;;;21.35;20.50;;;;;;;;;;5033039;28;20049;-77
2023/12/17 03:13:59;;;;;;;22.15;21.33;;;;;;;;;;5034600;28;20122;-77
2023/12/17 03:16:28;;;;;;;14.40;13.75;;;;;;;;;;5049919;28;20103;-80
2023/12/17 03:18:55;;;;;;;20.63;19.65;;;;;;;;;;5051521;28;20102;-80
2023/12/17 03:21:23;;;;;;;26.23;25.27;;;;;;;;;;5052031;28;20555;-78
2023/12/17 03:23:49;;;;;;;15.77;15.07;;;;;;;;;;5052282;28;20060;-77
2023/12/17 03:26:16;;;;;;;15.68;15.05;;;;;;;;;;5052683;28;20049;-78
2023/12/17 03:28:42;;;;;;;27.30;26.23;;;;;;;;;;5052161;28;20144;-78
2023/12/17 03:31:12;;;;;;;12.93;12.35;;;;;;;;;;5051042;28;20131;-78
2023/12/17 03:33:40;;;;;;;19.20;18.50;;;;;;;;;;5052402;28;20048;-78
2023/12/17 03:36:07;;;;;;;23.77;22.88;;;;;;;;;;5052436;28;20548;-77
2023/12/17 03:38:34;;;;;;;14.63;14.07;;;;;;;;;;5052241;28;20045;-77
2023/12/17 03:41:00;;;;;;;21.80;20.98;;;;;;;;;;5052091;28;20510;-78
2023/12/17 03:43:27;;;;;;;22.92;22.00;;;;;;;;;;5052193;28;20098;-77
2023/12/17 03:45:53;;;;;;;13.40;12.90;;;;;;;;;;5052087;28;20107;-82
2023/12/17 03:48:20;;;;;;;21.48;20.67;;;;;;;;;;5050701;28;20559;-80
2023/12/17 03:50:47;;;;;;;17.10;16.25;;;;;;;;;;5052000;28;20048;-80
2023/12/17 03:53:14;;;;;;;25.88;24.30;;;;;;;;;;5051916;28;20099;-79
2023/12/17 03:55:40;;;;;;;18.02;16.98;;;;;;;;;;5052519;28;20118;-81
2023/12/17 03:58:07;;;;;;;21.75;20.90;;;;;;;;;;5052456;28;20102;-81
2023/12/17 04:00:32;;;;;;;18.05;17.35;;;;;;;;;;5052055;28;20049;-81
2023/12/17 04:02:59;;;;;;;15.60;15.00;;;;;;;;;;5051804;28;20549;-81
2023/12/17 04:05:26;;;;;;;27.05;25.92;;;;;;;;;;5050689;28;20208;-82
2023/12/17 04:07:54;;;;;;;18.17;17.40;;;;;;;;;;5051726;28;20151;-82
2023/12/17 04:10:20;;;;;;;16.17;15.35;;;;;;;;;;5051791;28;20103;-81
2023/12/17 04:12:47;;;;;;;17.67;16.98;;;;;;;;;;5051689;28;20126;-80
2023/12/17 04:15:15;;;;;;;20.30;19.38;;;;;;;;;;5051656;28;20053;-79
2023/12/17 04:17:41;;;;;;;14.52;13.95;;;;;;;;;;5051781;28;20059;-80
2023/12/17 04:20:08;;;;;;;19.83;18.98;;;;;;;;;;5050701;28;20052;-79
2023/12/17 04:22:34;;;;;;;19.15;18.38;;;;;;;;;;5051657;28;20060;-81
2023/12/17 04:25:02;;;;;;;14.88;14.30;;;;;;;;;;5051726;28;20053;-81
2023/12/17 04:27:29;;;;;;;24.40;23.52;;;;;;;;;;5051722;28;20099;-81
2023/12/17 04:29:55;;;;;;;18.13;17.25;;;;;;;;;;5051555;28;20118;-82
2023/12/17 04:32:22;;;;;;;21.77;20.98;;;;;;;;;;5051569;28;20107;-82
2023/12/17 04:34:49;;;;;;;19.15;18.42;;;;;;;;;;5010579;28;20506;-82
2023/12/17 04:37:15;;;;;;;12.63;12.13;;;;;;;;;;5011844;28;20100;-82
2023/12/17 04:39:42;;;;;;;21.45;20.52;;;;;;;;;;5011981;28;20575;-82
2023/12/17 04:42:09;;;;;;;20.73;19.90;;;;;;;;;;5011896;28;20062;-82
2023/12/17 04:44:36;;;;;;;27.58;26.08;;;;;;;;;;5011970;28;20104;-82
2023/12/17 04:47:03;;;;;;;19.20;18.25;;;;;;;;;;5012407;28;20053;-81
2023/12/17 04:49:29;;;;;;;26.17;25.17;;;;;;;;;;5010515;28;20392;-81
2023/12/17 04:51:56;;;;;;;15.68;15.07;;;;;;;;;;5012153;28;20053;-82
2023/12/17 04:54:22;;;;;;;19.40;18.70;;;;;;;;;;5014094;28;20050;-80
2023/12/17 04:56:49;;;;;;;20.90;20.08;;;;;;;;;;5014294;28;20058;-81
2023/12/17 04:59:17;;;;;;;17.40;16.70;;;;;;;;;;5016007;28;20054;-84
2023/12/17 05:01:43;;;;;;;16.55;15.75;;;;;;;;;;5015610;28;20117;-80
2023/12/17 05:04:10;;;;;;;13.13;12.52;;;;;;;;;;5015554;28;20068;-81
2023/12/17 05:06:36;;;;;;;21.55;20.75;;;;;;;;;;5015691;28;20112;-82
2023/12/17 05:09:03;;;;;;;19.08;18.35;;;;;;;;;;5015235;28;20049;-82
2023/12/17 05:11:29;;;;;;;20.58;19.83;;;;;;;;;;5015529;28;20105;-82
2023/12/17 05:13:56;;;;;;;23.58;22.55;;;;;;;;;;5013882;28;20195;-82
2023/12/17 05:16:23;;;;;;;22.70;21.77;;;;;;;;;;5015328;28;20046;-82
2023/12/17 05:18:50;;;;;;;23.08;21.95;;;;;;;;;;5015306;28;20054;-82
2023/12/17 05:21:16;;;;;;;22.05;21.23;;;;;;;;;;5015277;28;20046;-81
2023/12/17 05:23:43;;;;;;;22.63;21.80;;;;;;;;;;5015075;28;20061;-80
2023/12/17 05:26:09;;;;;;;17.92;17.25;;;;;;;;;;5015100;28;20045;-82
2023/12/17 05:28:37;;;;;;;15.00;14.40;;;;;;;;;;5014814;28;20054;-80
2023/12/17 05:31:04;;;;;;;19.17;18.17;;;;;;;;;;5013671;28;20384;-81
2023/12/17 05:33:31;;;;;;;22.40;21.38;;;;;;;;;;5033284;28;20080;-81
2023/12/17 05:35:58;;;;;;;17.27;16.58;;;;;;;;;;5055319;28;20049;-80
2023/12/17 05:38:27;;;;;;;15.63;14.95;;;;;;;;;;5054710;28;20060;-80
2023/12/17 05:40:54;;;;;;;18.05;17.40;;;;;;;;;;5054455;28;20069;-80
2023/12/17 05:43:20;;;;;;;15.82;15.23;;;;;;;;;;5054571;28;20057;-80
2023/12/17 05:45:47;;;;;;;17.73;17.10;;;;;;;;;;5054504;28;20098;-81
2023/12/17 05:48:14;;;;;;;15.82;15.23;;;;;;;;;;5052753;28;20045;-81
2023/12/17 05:50:42;;;;;;;20.70;19.90;;;;;;;;;;5054477;28;20047;-80
2023/12/17 05:53:08;;;;;;;16.48;15.60;;;;;;;;;;5054588;28;20102;-79
2023/12/17 05:55:35;;;;;;;15.48;14.52;;;;;;;;;;5054058;28;20056;-79
2023/12/17 05:58:01;;;;;;;16.35;15.68;;;;;;;;;;5052553;28;20115;-81
2023/12/17 06:00:28;;;;;;;13.63;13.13;;;;;;;;;;5054732;28;20049;-80
2023/12/17 06:02:54;;;;;;;23.33;22.42;;;;;;;;;;5054296;28;20053;-80
2023/12/17 06:05:21;;;;;;;13.25;12.73;;;;;;;;;;5054191;28;20681;-81
2023/12/17 06:07:49;;;;;;;22.35;21.52;;;;;;;;;;5054124;28;20044;-80
2023/12/17 06:10:15;;;;;;;24.23;23.08;;;;;;;;;;5054167;28;20052;-80
2023/12/17 06:12:42;;;;;;;17.77;17.13;;;;;;;;;;5053996;28;20103;-82
2023/12/17 06:15:09;;;;;;;21.60;20.77;;;;;;;;;;5052672;28;20445;-84
2023/12/17 06:17:36;;;;;;;17.05;16.25;;;;;;;;;;5053420;28;20057;-83
2023/12/17 06:20:03;;;;;;;17.05;16.35;;;;;;;;;;5054076;28;20056;-84
2023/12/17 06:22:29;;;;;;;15.85;15.25;;;;;;;;;;5054077;28;20083;-84
2023/12/17 06:24:57;;;;;;;16.35;15.70;;;;;;;;;;5054776;28;20048;-84
2023/12/17 06:27:24;;;;;;;16.75;15.90;;;;;;;;;;5052189;28;20045;-81
2023/12/17 06:29:52;;;;;;;18.13;17.42;;;;;;;;;;5050913;28;20457;-83
2023/12/17 06:32:18;;;;;;;18.45;17.55;;;;;;;;;;5050154;28;20049;-84
2023/12/17 06:34:45;;;;;;;16.40;15.70;;;;;;;;;;5050340;28;20057;-83
2023/12/17 06:37:12;;;;;;;18.90;18.20;;;;;;;;;;5053151;28;20114;-82
2023/12/17 06:39:41;;;;;;;22.13;21.30;;;;;;;;;;5051718;28;20099;-84
2023/12/17 06:42:09;;;;;;;23.45;22.52;;;;;;;;;;5054229;28;20049;-84
2023/12/17 06:44:36;;;;;;;28.77;27.65;;;;;;;;;;5054470;28;20189;-84
2023/12/17 06:47:03;;;;;;;18.27;17.55;;;;;;;;;;5053045;28;20143;-84
2023/12/17 06:49:29;;;;;;;19.08;18.27;;;;;;;;;;5052109;28;20844;-84
2023/12/17 06:51:56;;;;;;;21.75;20.60;;;;;;;;;;5038664;28;20044;-81
2023/12/17 06:54:22;;;;;;;16.65;16.05;;;;;;;;;;5049791;28;20061;-80
2023/12/17 06:56:49;;;;;;;20.90;20.13;;;;;;;;;;5052251;28;20056;-80
2023/12/17 06:59:17;;;;;;;15.73;15.13;;;;;;;;;;5052881;28;20052;-81
2023/12/17 07:01:43;;;;;;;16.60;16.00;;;;;;;;;;5053057;28;20521;-81
2023/12/17 07:04:10;;;;;;;18.73;17.92;;;;;;;;;;5053093;28;20053;-81
2023/12/17 07:06:36;;;;;;;22.63;21.00;;;;;;;;;;5052803;28;20095;-81
2023/12/17 07:09:03;;;;;;;28.05;26.52;;;;;;;;;;5046080;28;20045;-75
2023/12/17 07:11:30;;;;;;;20.25;19.02;;;;;;;;;;5043464;28;20049;-80
2023/12/17 07:13:57;;;;;;;20.05;19.25;;;;;;;;;;5033076;28;20383;-79
2023/12/17 07:16:26;;;;;;;23.10;21.80;;;;;;;;;;5032312;28;20115;-81
2023/12/17 07:18:53;;;;;;;23.50;22.25;;;;;;;;;;5037726;28;20048;-78
2023/12/17 07:21:19;;;;;;;20.27;19.48;;;;;;;;;;5049966;28;20045;-80
2023/12/17 07:23:46;;;;;;;20.75;19.65;;;;;;;;;;5049096;28;20126;-80
2023/12/17 07:26:13;;;;;;;23.45;22.27;;;;;;;;;;5052391;28;20136;-80
2023/12/17 07:28:39;;;;;;;23.40;22.42;;;;;;;;;;5046085;28;20052;-79
2023/12/17 07:31:06;;;;;;;22.67;21.63;;;;;;;;;;5036059;28;20048;-76
2023/12/17 07:33:34;;;;;;;28.67;27.45;;;;;;;;;;5037565;28;20056;-76
2023/12/17 07:36:00;;;;;;;22.67;21.38;;;;;;;;;;5051452;28;20060;-77
2023/12/17 07:38:26;;;;;;;25.92;24.45;;;;;;;;;;5048752;28;20459;-77
2023/12/17 07:40:53;;;;;;;37.53;35.88;;;;;;;;;;5051487;28;20117;-76
2023/12/17 07:43:20;;;;;;;37.17;35.67;;;;;;;;;;5052044;28;20041;-76
2023/12/17 07:45:47;;;;;;;25.80;24.60;;;;;;;;;;5051379;28;20110;-76
2023/12/17 07:48:13;;;;;;;22.60;21.50;;;;;;;;;;5051588;28;20066;-76
2023/12/17 07:50:42;;;;;;;25.80;24.58;;;;;;;;;;5049698;28;20053;-77
2023/12/17 07:53:08;;;;;;;31.30;29.85;;;;;;;;;;5043347;28;20048;-77
2023/12/17 07:55:35;;;;;;;28.15;26.65;;;;;;;;;;5040131;28;20060;-77
2023/12/17 07:58:01;;;;;;;27.85;26.13;;;;;;;;;;5047959;28;20045;-77
2023/12/17 08:00:28;;;;;;;27.25;26.02;;;;;;;;;;5051087;28;20452;-77
2023/12/17 08:02:54;;;;;;;24.40;23.02;;;;;;;;;;5051685;28;20045;-77
2023/12/17 08:05:21;;;;;;;27.77;26.40;;;;;;;;;;5051901;28;20533;-78
2023/12/17 08:07:49;;;;;;;33.80;31.98;;;;;;;;;;5050995;28;20041;-78
2023/12/17 08:10:15;;;;;;;30.13;27.88;;;;;;;;;;5051354;28;20102;-78
2023/12/17 08:12:42;;;;;;;39.13;37.50;;;;;;;;;;5051161;28;20049;-78
2023/12/17 08:15:08;;;;;;;33.05;31.33;;;;;;;;;;5051438;28;20449;-78
2023/12/17 08:17:35;;;;;;;35.70;33.55;;;;;;;;;;5051291;28;20189;-77
2023/12/17 08:20:00;;;;;;;35.25;33.75;;;;;;;;;;5045913;28;20049;-78
2023/12/17 08:22:27;;;;;;;41.47;39.72;;;;;;;;;;5044916;28;20099;-78
2023/12/17 08:24:55;;;;;;;32.25;30.95;;;;;;;;;;5050892;28;20505;-77
2023/12/17 08:27:21;;;;;;;39.88;38.35;;;;;;;;;;5051082;28;20038;-77
2023/12/17 08:29:50;;;;;;;39.10;37.65;;;;;;;;;;5054440;28;20391;-77
2023/12/17 08:32:17;;;;;;;29.75;28.50;;;;;;;;;;5055081;28;20127;-78
2023/12/17 08:34:43;;;;;;;41.58;39.97;;;;;;;;;;5055078;28;20103;-78
2023/12/17 08:37:10;;;;;;;30.20;29.00;;;;;;;;;;5049265;28;20795;-77
2023/12/17 08:39:36;;;;;;;33.63;32.22;;;;;;;;;;5044164;28;20096;-77
2023/12/17 08:42:04;;;;;;;29.77;28.48;;;;;;;;;;5052361;28;20057;-78
2023/12/17 08:44:31;;;;;;;31.95;30.63;;;;;;;;;;5055134;28;20118;-78
2023/12/17 08:46:58;;;;;;;42.75;40.63;;;;;;;;;;5051717;28;20045;-78
2023/12/17 08:49:25;;;;;;;42.35;40.85;;;;;;;;;;5054937;28;20060;-79
2023/12/17 08:51:51;;;;;;;54.53;52.53;;;;;;;;;;5055150;28;20079;-78
2023/12/17 08:54:19;;;;;;;40.35;38.60;;;;;;;;;;5055274;28;20049;-79
2023/12/17 08:56:45;;;;;;;50.53;48.60;;;;;;;;;;5055050;28;20223;-78
2023/12/17 08:59:13;;;;;;;45.72;44.05;;;;;;;;;;5054000;28;20119;-79
2023/12/17 09:01:40;;;;;;;46.47;44.45;;;;;;;;;;5052282;28;20466;-83
2023/12/17 09:04:08;;;;;;;53.80;51.78;;;;;;;;;;5051523;28;20065;-78
2023/12/17 09:06:41;;;;;;;52.08;50.22;;;;;;;;;;5053206;28;20409;-79
2023/12/17 09:09:07;;;;;;;56.00;53.78;;;;;;;;;;5054941;28;20490;-78
2023/12/17 09:11:34;;;;;;;44.00;42.22;;;;;;;;;;5050519;28;20114;-78
2023/12/17 09:14:00;;;;;;;52.88;50.90;;;;;;;;;;5054730;28;20045;-77
2023/12/17 09:16:28;;;;;;;57.92;55.72;;;;;;;;;;5054818;28;20056;-75
2023/12/17 09:18:55;;;;;;;48.70;46.78;;;;;;;;;;5054869;28;20088;-78
2023/12/17 09:21:21;;;;;;;42.78;41.10;;;;;;;;;;5054935;28;20107;-78
2023/12/17 09:23:48;;;;;;;48.72;46.75;;;;;;;;;;5054554;28;20044;-77
2023/12/17 09:26:14;;;;;;;57.47;55.22;;;;;;;;;;5054689;28;20045;-78
2023/12/17 09:28:43;;;;;;;63.97;61.55;;;;;;;;;;5050546;28;20053;-78
2023/12/17 09:31:09;;;;;;;72.97;70.35;;;;;;;;;;5054209;28;20048;-77
2023/12/17 09:33:38;;;;;;;71.75;68.80;;;;;;;;;;5054308;28;20110;-77
2023/12/17 09:36:05;;;;;;;57.63;55.55;;;;;;;;;;5054383;28;20106;-77
2023/12/17 09:38:31;;;;;;;48.55;46.63;;;;;;;;;;5053660;28;20442;-76
2023/12/17 09:40:58;;;;;;;71.97;69.22;;;;;;;;;;5053753;28;20041;-77
2023/12/17 09:43:26;;;;;;;67.60;65.15;;;;;;;;;;5054547;28;20115;-77
2023/12/17 09:45:52;;;;;;;47.20;45.20;;;;;;;;;;5054004;28;20456;-77
2023/12/17 09:48:19;;;;;;;68.10;65.45;;;;;;;;;;5050444;28;20102;-77
2023/12/17 09:50:47;;;;;;;65.25;62.78;;;;;;;;;;5053744;28;20064;-77
2023/12/17 09:53:13;;;;;;;61.47;59.38;;;;;;;;;;5053898;28;20045;-77
2023/12/17 09:55:40;;;;;;;72.20;69.40;;;;;;;;;;5053694;28;20567;-76
2023/12/17 09:58:07;;;;;;;69.28;66.53;;;;;;;;;;5053911;28;20095;-77
2023/12/17 10:00:33;;;;;;;61.72;59.50;;;;;;;;;;5054024;28;20379;-77
2023/12/17 10:03:04;;;;;;;61.60;59.25;;;;;;;;;;5051782;28;20197;-76
2023/12/17 10:05:30;;;;;;;70.78;68.18;;;;;;;;;;5050537;28;20052;-78
2023/12/17 10:07:59;;;;;;;74.55;71.78;;;;;;;;;;5050297;28;20110;-77
2023/12/17 10:10:25;;;;;;;78.38;75.35;;;;;;;;;;5051627;28;20053;-76
2023/12/17 10:12:52;;;;;;;79.03;76.25;;;;;;;;;;5052956;28;20099;-77
2023/12/17 10:15:19;;;;;;;63.60;61.00;;;;;;;;;;5051397;28;20048;-76
2023/12/17 10:17:45;;;;;;;49.70;47.72;;;;;;;;;;5044017;28;20045;-76
2023/12/17 10:20:17;;;;;;;54.85;52.78;;;;;;;;;;5052865;28;20106;-75
2023/12/17 10:22:56;;;;;;;60.45;58.17;;;;;;;;;;5044437;28;20255;-76
2023/12/17 10:25:24;;;;;;;56.75;54.60;;;;;;;;;;5053182;28;20041;-76
2023/12/17 10:27:53;;;;;;;45.60;43.92;;;;;;;;;;5052925;28;20053;-76
2023/12/17 10:30:20;;;;;;;59.13;57.00;;;;;;;;;;5052942;28;20048;-75
2023/12/17 10:32:47;;;;;;;39.47;37.88;;;;;;;;;;5053132;28;20048;-75
2023/12/17 10:35:14;;;;;;;41.08;39.47;;;;;;;;;;5047535;28;20099;-76
2023/12/17 10:37:41;;;;;;;61.20;58.90;;;;;;;;;;5052507;28;20048;-76
2023/12/17 10:40:11;;;;;;;57.15;54.88;;;;;;;;;;5052949;28;20041;-75
2023/12/17 10:42:40;;;;;;;73.68;71.03;;;;;;;;;;5050774;28;20044;-76
2023/12/17 10:45:07;;;;;;;63.88;61.38;;;;;;;;;;5042256;28;20449;-75
2023/12/17 10:47:34;;;;;;;68.07;65.60;;;;;;;;;;5042488;28;20059;-75
2023/12/17 10:50:02;;;;;;;51.55;49.55;;;;;;;;;;5043392;28;20049;-76
2023/12/17 10:52:32;;;;;;;65.47;63.00;;;;;;;;;;5040351;28;20396;-75
2023/12/17 10:54:59;;;;;;;43.35;41.70;;;;;;;;;;5042621;28;20041;-76
2023/12/17 10:57:27;;;;;;;47.13;45.38;;;;;;;;;;5042551;28;20111;-76
2023/12/17 10:59:57;;;;;;;41.63;39.90;;;;;;;;;;5047622;28;20525;-76
2023/12/17 11:02:26;;;;;;;35.85;34.33;;;;;;;;;;5044174;28;20075;-75
2023/12/17 11:04:52;;;;;;;50.17;48.13;;;;;;;;;;5046996;28;20037;-76
2023/12/17 11:07:19;;;;;;;35.63;34.22;;;;;;;;;;5044986;28;20110;-76
2023/12/17 11:09:46;;;;;;;39.78;38.10;;;;;;;;;;5045495;28;20049;-75
2023/12/17 11:12:13;;;;;;;34.75;33.38;;;;;;;;;;5041955;28;20096;-75
2023/12/17 11:14:42;;;;;;;37.47;36.08;;;;;;;;;;5037510;28;20876;-76
2023/12/17 11:17:12;;;;;;;50.90;48.95;;;;;;;;;;5032262;28;20049;-75
2023/12/17 11:19:52;;;;;;;45.90;44.05;;;;;;;;;;5032701;28;20061;-75
2023/12/17 11:22:19;;;;;;;49.70;47.88;;;;;;;;;;5032138;28;20053;-75
2023/12/17 11:24:45;;;;;;;48.50;46.53;;;;;;;;;;5035652;28;20057;-75
2023/12/17 11:27:12;;;;;;;49.72;47.90;;;;;;;;;;5047787;28;20037;-75
2023/12/17 11:29:39;;;;;;;47.33;45.42;;;;;;;;;;5048103;28;20067;-75
2023/12/17 11:32:06;;;;;;;44.60;42.85;;;;;;;;;;5051467;28;20053;-75
2023/12/17 11:34:34;;;;;;;50.33;48.58;;;;;;;;;;5051241;28;20057;-75
2023/12/17 11:37:01;;;;;;;58.97;56.95;;;;;;;;;;5050201;28;20494;-75
2023/12/17 11:39:28;;;;;;;50.40;48.42;;;;;;;;;;5051195;28;20106;-76
2023/12/17 11:41:55;;;;;;;48.30;46.53;;;;;;;;;;5051309;28;20048;-75
2023/12/17 11:44:23;;;;;;;51.38;49.10;;;;;;;;;;5051491;28;20049;-76
2023/12/17 11:46:49;;;;;;;51.17;49.22;;;;;;;;;;5047733;28;20728;-75
2023/12/17 11:49:22;;;;;;;46.47;44.47;;;;;;;;;;5051293;28;20041;-75
2023/12/17 11:51:50;;;;;;;61.95;59.72;;;;;;;;;;5067344;28;20052;-74
2023/12/17 11:54:19;;;;;;;47.70;45.95;;;;;;;;;;5057603;28;20044;-75
2023/12/17 11:56:47;;;;;;;51.35;49.47;;;;;;;;;;5045780;28;20075;-75
2023/12/17 11:59:14;;;;;;;52.35;50.33;;;;;;;;;;5051777;28;20064;-74
2023/12/17 12:01:40;;;;;;;43.10;41.28;;;;;;;;;;5051433;28;20056;-75
2023/12/17 12:04:07;;;;;;;57.63;55.33;;;;;;;;;;5047371;28;20044;-75
2023/12/17 12:06:33;;;;;;;38.53;37.13;;;;;;;;;;5047206;28;20056;-75
2023/12/17 12:09:02;;;;;;;57.35;55.13;;;;;;;;;;5051524;28;20520;-75
2023/12/17 12:11:33;;;;;;;46.78;44.85;;;;;;;;;;5051483;28;20048;-75
2023/12/17 12:13:59;;;;;;;45.40;43.30;;;;;;;;;;5051466;28;20049;-75
2023/12/17 12:16:27;;;;;;;34.40;32.97;;;;;;;;;;5050963;28;20440;-75
2023/12/17 12:19:03;;;;;;;45.88;44.05;;;;;;;;;;5051055;28;20484;-74
2023/12/17 12:21:29;;;;;;;38.47;36.88;;;;;;;;;;5039927;28;20041;-75
2023/12/17 12:23:56;;;;;;;49.53;47.72;;;;;;;;;;5040672;28;20050;-75
2023/12/17 12:26:25;;;;;;;52.70;49.78;;;;;;;;;;5044560;28;20122;-75
2023/12/17 12:28:58;;;;;;;53.10;50.60;;;;;;;;;;5046071;28;20095;-75
2023/12/17 12:31:24;;;;;;;39.63;37.75;;;;;;;;;;5040585;28;21484;-75
2023/12/17 12:33:54;;;;;;;51.95;49.88;;;;;;;;;;5038177;28;20049;-75
2023/12/17 12:36:21;;;;;;;54.17;52.25;;;;;;;;;;5041426;28;20116;-75
2023/12/17 12:38:59;;;;;;;47.10;45.30;;;;;;;;;;5039677;28;20399;-75
2023/12/17 12:41:25;;;;;;;;;;;;;;;;;;5040401;28;20126;-76
2023/12/17 12:43:53;;;;;;;37.47;36.08;;;;;;;;;;5043064;28;19924;-74
2023/12/17 12:46:21;;;;;;;46.40;44.58;;;;;;;;;;5047350;28;21006;-75
2023/12/17 12:48:53;;;;;;;48.90;46.83;;;;;;;;;;5051105;28;20053;-75
2023/12/17 12:51:19;;;;;;;58.60;56.38;;;;;;;;;;5035126;28;20045;-75
2023/12/17 12:53:46;;;;;;;45.47;43.50;;;;;;;;;;5050248;28;20102;-75
2023/12/17 12:56:12;;;;;;;54.78;52.67;;;;;;;;;;5051111;28;20118;-74
2023/12/17 12:58:39;;;;;;;42.72;41.05;;;;;;;;;;5051116;28;20099;-73
2023/12/17 13:01:07;;;;;;;53.45;51.25;;;;;;;;;;5051220;28;20083;-74
2023/12/17 13:03:33;;;;;;;49.75;47.92;;;;;;;;;;5050905;28;20053;-74
2023/12/17 13:06:00;;;;;;;53.85;51.83;;;;;;;;;;5050876;28;20282;-74
2023/12/17 13:08:26;;;;;;;69.05;66.20;;;;;;;;;;5050838;28;20413;-74
2023/12/17 13:10:53;;;;;;;62.75;60.15;;;;;;;;;;5050833;28;20099;-74
2023/12/17 13:13:20;;;;;;;53.33;51.40;;;;;;;;;;5050964;28;20099;-74
2023/12/17 13:15:46;;;;;;;60.72;58.38;;;;;;;;;;5053571;28;20103;-75
2023/12/17 13:18:14;;;;;;;70.45;67.85;;;;;;;;;;5054522;28;20045;-75
2023/12/17 13:20:41;;;;;;;70.13;67.47;;;;;;;;;;5044662;28;20051;-75
2023/12/17 13:23:07;;;;;;;61.90;59.55;;;;;;;;;;5044572;28;20053;-75
2023/12/17 13:25:34;;;;;;;60.78;58.38;;;;;;;;;;5044275;28;20049;-77
2023/12/17 13:28:00;;;;;;;68.35;65.63;;;;;;;;;;5044791;28;20060;-74
2023/12/17 13:30:29;;;;;;;57.55;55.35;;;;;;;;;;5044461;28;20494;-74
2023/12/17 13:33:00;;;;;;;62.65;60.10;;;;;;;;;;5043741;28;20067;-74
2023/12/17 13:35:27;;;;;;;73.85;71.10;;;;;;;;;;5044566;28;20486;-75
2023/12/17 13:37:55;;;;;;;50.88;48.88;;;;;;;;;;5041968;28;20095;-75
2023/12/17 13:40:21;;;;;;;55.05;53.03;;;;;;;;;;5043474;28;20041;-74
2023/12/17 13:42:49;;;;;;;69.50;66.88;;;;;;;;;;5043757;28;20106;-74
2023/12/17 13:45:16;;;;;;;56.10;53.92;;;;;;;;;;5044839;28;20053;-74
2023/12/17 13:47:42;;;;;;;59.20;57.10;;;;;;;;;;5043248;28;20042;-74
2023/12/17 13:50:10;;;;;;;76.72;73.85;;;;;;;;;;5051465;28;20049;-74
2023/12/17 13:52:37;;;;;;;60.63;58.35;;;;;;;;;;5053299;28;20045;-74
2023/12/17 13:55:07;;;;;;;58.97;56.80;;;;;;;;;;5050762;28;20049;-73
2023/12/17 13:57:36;;;;;;;56.13;53.88;;;;;;;;;;5051254;28;20490;-73
2023/12/17 14:00:04;;;;;;;56.42;54.20;;;;;;;;;;5059258;28;20128;-73
2023/12/17 14:02:31;;;;;;;62.85;60.50;;;;;;;;;;5053551;28;20098;-73
2023/12/17 14:04:57;;;;;;;53.63;51.55;;;;;;;;;;5053398;28;20095;-73
2023/12/17 14:07:25;;;;;;;54.03;51.97;;;;;;;;;;5053320;28;20049;-73
2023/12/17 14:09:53;;;;;;;51.47;49.63;;;;;;;;;;5053552;28;20076;-73
2023/12/17 14:12:20;;;;;;;45.67;43.60;;;;;;;;;;5052848;28;20052;-74
2023/12/17 14:14:46;;;;;;;52.40;50.53;;;;;;;;;;5053098;28;20052;-73
2023/12/17 14:17:13;;;;;;;53.20;51.17;;;;;;;;;;5050772;28;20057;-74